sensor_id;sensor_type;location;lat;lon;timestamp;P1;durP1;ratioP1;P2;durP2;ratioP2
52948;SDS011;38812;50.942;3.644;2022-11-14T00:01:55;49.17;;;30.65;;
52948;SDS011;38812;50.942;3.644;2022-11-14T00:04:21;58.35;;;33.42;;
52948;SDS011;38812;50.942;3.644;2022-11-14T00:06:46;53.17;;;29.83;;
52948;SDS011;38812;50.942;3.644;2022-11-14T00:09:11;48.85;;;29.30;;
52948;SDS011;38812;50.942;3.644;2022-11-14T00:11:37;45.03;;;27.70;;
52948;SDS011;38812;50.942;3.644;2022-11-14T00:14:02;44.80;;;27.98;;
52948;SDS011;38812;50.942;3.644;2022-11-14T00:16:27;50.78;;;30.15;;
52948;SDS011;38812;50.942;3.644;2022-11-14T00:18:53;54.08;;;28.52;;
52948;SDS011;38812;50.942;3.644;2022-11-14T00:21:18;45.85;;;28.20;;
52948;SDS011;38812;50.942;3.644;2022-11-14T00:23:43;44.92;;;28.35;;
52948;SDS011;38812;50.942;3.644;2022-11-14T00:26:09;44.17;;;27.67;;
52948;SDS011;38812;50.942;3.644;2022-11-14T00:28:34;48.20;;;28.55;;
52948;SDS011;38812;50.942;3.644;2022-11-14T00:30:59;48.55;;;28.55;;
52948;SDS011;38812;50.942;3.644;2022-11-14T00:33:25;50.30;;;27.77;;
52948;SDS011;38812;50.942;3.644;2022-11-14T00:35:51;46.17;;;28.33;;
52948;SDS011;38812;50.942;3.644;2022-11-14T00:38:18;40.50;;;25.10;;
52948;SDS011;38812;50.942;3.644;2022-11-14T00:40:43;42.03;;;25.35;;
52948;SDS011;38812;50.942;3.644;2022-11-14T00:43:09;43.38;;;25.50;;
52948;SDS011;38812;50.942;3.644;2022-11-14T00:45:34;44.25;;;25.23;;
52948;SDS011;38812;50.942;3.644;2022-11-14T00:47:59;40.60;;;25.38;;
52948;SDS011;38812;50.942;3.644;2022-11-14T00:50:25;47.45;;;26.27;;
52948;SDS011;38812;50.942;3.644;2022-11-14T00:52:50;42.28;;;24.80;;
52948;SDS011;38812;50.942;3.644;2022-11-14T00:55:15;38.90;;;26.00;;
52948;SDS011;38812;50.942;3.644;2022-11-14T00:57:41;46.40;;;25.60;;
52948;SDS011;38812;50.942;3.644;2022-11-14T01:00:06;40.40;;;24.88;;
52948;SDS011;38812;50.942;3.644;2022-11-14T01:02:32;43.08;;;23.45;;
52948;SDS011;38812;50.942;3.644;2022-11-14T01:04:57;40.25;;;23.27;;
52948;SDS011;38812;50.942;3.644;2022-11-14T01:07:23;47.15;;;26.00;;
52948;SDS011;38812;50.942;3.644;2022-11-14T01:09:48;39.03;;;24.50;;
52948;SDS011;38812;50.942;3.644;2022-11-14T01:12:14;41.47;;;23.38;;
52948;SDS011;38812;50.942;3.644;2022-11-14T01:14:39;44.63;;;25.05;;
52948;SDS011;38812;50.942;3.644;2022-11-14T01:17:05;43.17;;;23.45;;
52948;SDS011;38812;50.942;3.644;2022-11-14T01:19:30;40.08;;;23.02;;
52948;SDS011;38812;50.942;3.644;2022-11-14T01:21:56;44.25;;;22.77;;
52948;SDS011;38812;50.942;3.644;2022-11-14T01:24:21;38.30;;;22.48;;
52948;SDS011;38812;50.942;3.644;2022-11-14T01:26:46;38.47;;;21.90;;
52948;SDS011;38812;50.942;3.644;2022-11-14T01:29:12;35.40;;;22.52;;
52948;SDS011;38812;50.942;3.644;2022-11-14T01:31:37;34.35;;;21.83;;
52948;SDS011;38812;50.942;3.644;2022-11-14T01:34:03;38.55;;;21.25;;
52948;SDS011;38812;50.942;3.644;2022-11-14T01:36:28;44.75;;;22.50;;
52948;SDS011;38812;50.942;3.644;2022-11-14T01:38:53;37.42;;;21.70;;
52948;SDS011;38812;50.942;3.644;2022-11-14T01:41:19;38.67;;;21.13;;
52948;SDS011;38812;50.942;3.644;2022-11-14T01:43:45;44.42;;;21.75;;
52948;SDS011;38812;50.942;3.644;2022-11-14T01:53:52;37.33;;;20.25;;
52948;SDS011;38812;50.942;3.644;2022-11-14T01:56:27;46.70;;;21.00;;
52948;SDS011;38812;50.942;3.644;2022-11-14T01:59:16;60.63;;;23.58;;
52948;SDS011;38812;50.942;3.644;2022-11-14T02:01:45;42.40;;;20.83;;
52948;SDS011;38812;50.942;3.644;2022-11-14T02:04:18;56.78;;;18.70;;
52948;SDS011;38812;50.942;3.644;2022-11-14T02:06:47;51.22;;;21.33;;
52948;SDS011;38812;50.942;3.644;2022-11-14T02:09:13;48.28;;;19.20;;
52948;SDS011;38812;50.942;3.644;2022-11-14T02:11:39;44.17;;;18.15;;
52948;SDS011;38812;50.942;3.644;2022-11-14T02:14:07;46.50;;;19.10;;
52948;SDS011;38812;50.942;3.644;2022-11-14T02:16:33;46.25;;;18.63;;
52948;SDS011;38812;50.942;3.644;2022-11-14T02:18:59;56.10;;;20.23;;
52948;SDS011;38812;50.942;3.644;2022-11-14T02:21:24;30.60;;;17.17;;
52948;SDS011;38812;50.942;3.644;2022-11-14T02:23:50;42.03;;;18.27;;
52948;SDS011;38812;50.942;3.644;2022-11-14T02:26:19;35.40;;;18.38;;
52948;SDS011;38812;50.942;3.644;2022-11-14T02:28:45;34.25;;;17.42;;
52948;SDS011;38812;50.942;3.644;2022-11-14T02:31:11;37.90;;;18.98;;
52948;SDS011;38812;50.942;3.644;2022-11-14T02:33:38;39.05;;;19.38;;
52948;SDS011;38812;50.942;3.644;2022-11-14T02:36:03;47.60;;;18.42;;
52948;SDS011;38812;50.942;3.644;2022-11-14T02:38:29;45.00;;;18.77;;
52948;SDS011;38812;50.942;3.644;2022-11-14T02:40:54;46.42;;;18.77;;
52948;SDS011;38812;50.942;3.644;2022-11-14T02:43:19;43.85;;;18.42;;
52948;SDS011;38812;50.942;3.644;2022-11-14T02:45:45;62.10;;;19.13;;
52948;SDS011;38812;50.942;3.644;2022-11-14T02:48:11;41.55;;;18.10;;
52948;SDS011;38812;50.942;3.644;2022-11-14T02:50:36;43.53;;;17.65;;
52948;SDS011;38812;50.942;3.644;2022-11-14T02:53:02;43.33;;;17.02;;
52948;SDS011;38812;50.942;3.644;2022-11-14T02:55:27;40.58;;;16.27;;
52948;SDS011;38812;50.942;3.644;2022-11-14T02:57:53;31.00;;;17.67;;
52948;SDS011;38812;50.942;3.644;2022-11-14T03:00:18;32.95;;;16.35;;
52948;SDS011;38812;50.942;3.644;2022-11-14T03:02:43;43.00;;;19.00;;
52948;SDS011;38812;50.942;3.644;2022-11-14T03:05:09;55.88;;;17.77;;
52948;SDS011;38812;50.942;3.644;2022-11-14T03:07:34;34.00;;;16.02;;
52948;SDS011;38812;50.942;3.644;2022-11-14T03:09:59;40.22;;;17.40;;
52948;SDS011;38812;50.942;3.644;2022-11-14T03:12:26;26.58;;;15.05;;
52948;SDS011;38812;50.942;3.644;2022-11-14T03:14:51;27.95;;;16.55;;
52948;SDS011;38812;50.942;3.644;2022-11-14T03:17:16;25.17;;;16.63;;
52948;SDS011;38812;50.942;3.644;2022-11-14T03:19:42;27.63;;;14.52;;
52948;SDS011;38812;50.942;3.644;2022-11-14T03:22:07;24.45;;;15.30;;
52948;SDS011;38812;50.942;3.644;2022-11-14T03:24:32;25.92;;;16.80;;
52948;SDS011;38812;50.942;3.644;2022-11-14T03:26:58;23.92;;;15.50;;
52948;SDS011;38812;50.942;3.644;2022-11-14T03:29:23;26.58;;;16.33;;
52948;SDS011;38812;50.942;3.644;2022-11-14T03:31:48;26.45;;;16.08;;
52948;SDS011;38812;50.942;3.644;2022-11-14T03:34:14;23.02;;;16.02;;
52948;SDS011;38812;50.942;3.644;2022-11-14T03:36:39;23.33;;;15.75;;
52948;SDS011;38812;50.942;3.644;2022-11-14T03:39:05;25.33;;;14.52;;
52948;SDS011;38812;50.942;3.644;2022-11-14T03:41:30;32.95;;;15.32;;
52948;SDS011;38812;50.942;3.644;2022-11-14T03:43:56;24.67;;;14.52;;
52948;SDS011;38812;50.942;3.644;2022-11-14T03:46:21;31.70;;;15.57;;
52948;SDS011;38812;50.942;3.644;2022-11-14T03:48:47;41.00;;;16.30;;
52948;SDS011;38812;50.942;3.644;2022-11-14T03:51:12;37.42;;;14.57;;
52948;SDS011;38812;50.942;3.644;2022-11-14T03:53:38;82.22;;;15.07;;
52948;SDS011;38812;50.942;3.644;2022-11-14T03:56:03;33.83;;;14.43;;
52948;SDS011;38812;50.942;3.644;2022-11-14T03:58:29;48.95;;;14.07;;
52948;SDS011;38812;50.942;3.644;2022-11-14T04:00:54;54.05;;;13.75;;
52948;SDS011;38812;50.942;3.644;2022-11-14T04:03:20;58.80;;;14.20;;
52948;SDS011;38812;50.942;3.644;2022-11-14T04:05:47;42.00;;;13.73;;
52948;SDS011;38812;50.942;3.644;2022-11-14T04:08:13;41.78;;;14.27;;
52948;SDS011;38812;50.942;3.644;2022-11-14T04:10:38;35.13;;;13.27;;
52948;SDS011;38812;50.942;3.644;2022-11-14T04:13:05;47.15;;;13.75;;
52948;SDS011;38812;50.942;3.644;2022-11-14T04:15:31;65.65;;;13.65;;
52948;SDS011;38812;50.942;3.644;2022-11-14T04:17:56;42.33;;;14.23;;
52948;SDS011;38812;50.942;3.644;2022-11-14T04:20:22;59.70;;;14.27;;
52948;SDS011;38812;50.942;3.644;2022-11-14T04:22:47;34.40;;;13.65;;
52948;SDS011;38812;50.942;3.644;2022-11-14T04:25:12;38.10;;;13.73;;
52948;SDS011;38812;50.942;3.644;2022-11-14T04:27:38;45.75;;;13.77;;
52948;SDS011;38812;50.942;3.644;2022-11-14T04:30:03;38.55;;;14.35;;
52948;SDS011;38812;50.942;3.644;2022-11-14T04:32:29;31.52;;;14.10;;
52948;SDS011;38812;50.942;3.644;2022-11-14T04:34:55;31.55;;;14.82;;
52948;SDS011;38812;50.942;3.644;2022-11-14T04:37:20;44.17;;;14.65;;
52948;SDS011;38812;50.942;3.644;2022-11-14T04:39:46;44.25;;;15.50;;
52948;SDS011;38812;50.942;3.644;2022-11-14T04:42:11;53.50;;;15.25;;
52948;SDS011;38812;50.942;3.644;2022-11-14T04:44:37;26.02;;;14.52;;
52948;SDS011;38812;50.942;3.644;2022-11-14T04:47:02;31.58;;;14.63;;
52948;SDS011;38812;50.942;3.644;2022-11-14T04:49:27;32.63;;;14.55;;
52948;SDS011;38812;50.942;3.644;2022-11-14T04:51:53;36.70;;;14.38;;
52948;SDS011;38812;50.942;3.644;2022-11-14T04:54:18;23.40;;;14.40;;
52948;SDS011;38812;50.942;3.644;2022-11-14T04:56:43;38.85;;;15.25;;
52948;SDS011;38812;50.942;3.644;2022-11-14T04:59:09;31.85;;;15.15;;
52948;SDS011;38812;50.942;3.644;2022-11-14T05:01:34;46.15;;;16.05;;
52948;SDS011;38812;50.942;3.644;2022-11-14T05:03:59;65.35;;;17.40;;
52948;SDS011;38812;50.942;3.644;2022-11-14T05:06:25;50.22;;;14.60;;
52948;SDS011;38812;50.942;3.644;2022-11-14T05:08:50;32.05;;;14.60;;
52948;SDS011;38812;50.942;3.644;2022-11-14T05:11:16;28.63;;;14.98;;
52948;SDS011;38812;50.942;3.644;2022-11-14T05:13:43;44.05;;;14.45;;
52948;SDS011;38812;50.942;3.644;2022-11-14T05:16:09;52.53;;;14.77;;
52948;SDS011;38812;50.942;3.644;2022-11-14T05:18:35;62.28;;;15.27;;
52948;SDS011;38812;50.942;3.644;2022-11-14T05:21:01;57.42;;;16.02;;
52948;SDS011;38812;50.942;3.644;2022-11-14T05:23:27;32.65;;;13.90;;
52948;SDS011;38812;50.942;3.644;2022-11-14T05:26:07;53.33;;;14.98;;
52948;SDS011;38812;50.942;3.644;2022-11-14T05:28:35;52.85;;;15.13;;
52948;SDS011;38812;50.942;3.644;2022-11-14T05:31:01;47.13;;;15.13;;
52948;SDS011;38812;50.942;3.644;2022-11-14T05:33:30;40.42;;;14.20;;
52948;SDS011;38812;50.942;3.644;2022-11-14T05:35:56;50.13;;;16.42;;
52948;SDS011;38812;50.942;3.644;2022-11-14T05:38:26;51.42;;;15.15;;
52948;SDS011;38812;50.942;3.644;2022-11-14T05:40:51;40.28;;;15.73;;
52948;SDS011;38812;50.942;3.644;2022-11-14T05:43:16;32.63;;;14.73;;
52948;SDS011;38812;50.942;3.644;2022-11-14T05:45:42;36.55;;;14.52;;
52948;SDS011;38812;50.942;3.644;2022-11-14T05:48:07;76.00;;;15.98;;
52948;SDS011;38812;50.942;3.644;2022-11-14T05:50:33;39.97;;;14.55;;
52948;SDS011;38812;50.942;3.644;2022-11-14T05:52:58;70.20;;;13.25;;
52948;SDS011;38812;50.942;3.644;2022-11-14T05:55:23;52.78;;;14.77;;
52948;SDS011;38812;50.942;3.644;2022-11-14T05:57:49;56.17;;;14.57;;
52948;SDS011;38812;50.942;3.644;2022-11-14T06:00:14;32.10;;;14.88;;
52948;SDS011;38812;50.942;3.644;2022-11-14T06:02:40;48.13;;;14.10;;
52948;SDS011;38812;50.942;3.644;2022-11-14T06:05:05;50.38;;;13.45;;
52948;SDS011;38812;50.942;3.644;2022-11-14T06:07:31;33.05;;;14.10;;
52948;SDS011;38812;50.942;3.644;2022-11-14T06:09:56;41.80;;;14.80;;
52948;SDS011;38812;50.942;3.644;2022-11-14T06:12:21;43.40;;;15.20;;
52948;SDS011;38812;50.942;3.644;2022-11-14T06:14:47;28.42;;;14.10;;
52948;SDS011;38812;50.942;3.644;2022-11-14T06:17:12;31.63;;;14.13;;
52948;SDS011;38812;50.942;3.644;2022-11-14T06:19:37;20.60;;;14.15;;
52948;SDS011;38812;50.942;3.644;2022-11-14T06:22:03;26.50;;;14.55;;
52948;SDS011;38812;50.942;3.644;2022-11-14T06:24:28;20.38;;;13.82;;
52948;SDS011;38812;50.942;3.644;2022-11-14T06:26:53;28.80;;;14.98;;
52948;SDS011;38812;50.942;3.644;2022-11-14T06:29:19;23.63;;;13.77;;
52948;SDS011;38812;50.942;3.644;2022-11-14T06:31:44;40.10;;;16.20;;
52948;SDS011;38812;50.942;3.644;2022-11-14T06:34:10;25.05;;;16.85;;
52948;SDS011;38812;50.942;3.644;2022-11-14T06:36:37;31.45;;;14.73;;
52948;SDS011;38812;50.942;3.644;2022-11-14T06:39:02;43.42;;;19.08;;
52948;SDS011;38812;50.942;3.644;2022-11-14T06:41:28;31.77;;;15.40;;
52948;SDS011;38812;50.942;3.644;2022-11-14T06:43:53;27.00;;;15.88;;
52948;SDS011;38812;50.942;3.644;2022-11-14T06:46:19;27.42;;;16.10;;
52948;SDS011;38812;50.942;3.644;2022-11-14T06:48:46;29.13;;;16.90;;
52948;SDS011;38812;50.942;3.644;2022-11-14T06:51:12;27.00;;;14.48;;
52948;SDS011;38812;50.942;3.644;2022-11-14T06:53:39;25.75;;;14.48;;
52948;SDS011;38812;50.942;3.644;2022-11-14T06:56:05;35.13;;;16.15;;
52948;SDS011;38812;50.942;3.644;2022-11-14T06:58:34;30.00;;;16.75;;
52948;SDS011;38812;50.942;3.644;2022-11-14T07:01:07;24.25;;;14.80;;
52948;SDS011;38812;50.942;3.644;2022-11-14T07:06:02;28.70;;;15.50;;
52948;SDS011;38812;50.942;3.644;2022-11-14T07:08:28;22.13;;;14.40;;
52948;SDS011;38812;50.942;3.644;2022-11-14T07:10:59;28.25;;;16.10;;
52948;SDS011;38812;50.942;3.644;2022-11-14T07:13:25;22.80;;;15.05;;
52948;SDS011;38812;50.942;3.644;2022-11-14T07:15:51;24.33;;;14.23;;
52948;SDS011;38812;50.942;3.644;2022-11-14T07:18:17;30.35;;;14.77;;
52948;SDS011;38812;50.942;3.644;2022-11-14T07:20:43;25.23;;;15.30;;
52948;SDS011;38812;50.942;3.644;2022-11-14T07:23:08;25.80;;;15.85;;
52948;SDS011;38812;50.942;3.644;2022-11-14T07:25:33;23.25;;;15.10;;
52948;SDS011;38812;50.942;3.644;2022-11-14T07:27:59;26.92;;;14.25;;
52948;SDS011;38812;50.942;3.644;2022-11-14T07:30:24;20.35;;;14.43;;
52948;SDS011;38812;50.942;3.644;2022-11-14T07:32:53;27.70;;;15.05;;
52948;SDS011;38812;50.942;3.644;2022-11-14T07:35:20;29.80;;;16.77;;
52948;SDS011;38812;50.942;3.644;2022-11-14T07:37:48;32.88;;;18.52;;
52948;SDS011;38812;50.942;3.644;2022-11-14T07:40:14;41.05;;;20.50;;
52948;SDS011;38812;50.942;3.644;2022-11-14T07:42:40;39.45;;;21.33;;
52948;SDS011;38812;50.942;3.644;2022-11-14T07:45:06;40.22;;;19.85;;
52948;SDS011;38812;50.942;3.644;2022-11-14T07:47:32;34.28;;;20.50;;
52948;SDS011;38812;50.942;3.644;2022-11-14T07:49:58;30.83;;;20.00;;
52948;SDS011;38812;50.942;3.644;2022-11-14T07:52:23;26.90;;;19.33;;
52948;SDS011;38812;50.942;3.644;2022-11-14T07:54:48;26.17;;;18.17;;
52948;SDS011;38812;50.942;3.644;2022-11-14T07:57:14;26.40;;;16.30;;
52948;SDS011;38812;50.942;3.644;2022-11-14T07:59:39;26.30;;;16.05;;
52948;SDS011;38812;50.942;3.644;2022-11-14T08:02:04;23.08;;;13.32;;
52948;SDS011;38812;50.942;3.644;2022-11-14T08:04:30;15.48;;;11.32;;
52948;SDS011;38812;50.942;3.644;2022-11-14T08:06:55;16.38;;;11.73;;
52948;SDS011;38812;50.942;3.644;2022-11-14T08:09:21;18.33;;;12.45;;
52948;SDS011;38812;50.942;3.644;2022-11-14T08:11:47;15.77;;;11.32;;
52948;SDS011;38812;50.942;3.644;2022-11-14T08:14:12;19.42;;;11.95;;
52948;SDS011;38812;50.942;3.644;2022-11-14T08:16:38;16.10;;;11.38;;
52948;SDS011;38812;50.942;3.644;2022-11-14T08:19:03;20.27;;;13.73;;
52948;SDS011;38812;50.942;3.644;2022-11-14T08:21:29;18.50;;;11.68;;
52948;SDS011;38812;50.942;3.644;2022-11-14T08:23:55;16.33;;;11.35;;
52948;SDS011;38812;50.942;3.644;2022-11-14T08:26:20;17.27;;;11.65;;
52948;SDS011;38812;50.942;3.644;2022-11-14T08:28:46;16.40;;;11.63;;
52948;SDS011;38812;50.942;3.644;2022-11-14T08:31:11;21.00;;;11.15;;
52948;SDS011;38812;50.942;3.644;2022-11-14T08:33:37;16.52;;;11.63;;
52948;SDS011;38812;50.942;3.644;2022-11-14T08:36:04;14.57;;;10.70;;
52948;SDS011;38812;50.942;3.644;2022-11-14T08:38:31;17.17;;;11.70;;
52948;SDS011;38812;50.942;3.644;2022-11-14T08:40:58;20.05;;;10.80;;
52948;SDS011;38812;50.942;3.644;2022-11-14T08:43:24;16.58;;;10.95;;
52948;SDS011;38812;50.942;3.644;2022-11-14T08:45:50;19.00;;;11.32;;
52948;SDS011;38812;50.942;3.644;2022-11-14T08:48:15;16.90;;;10.65;;
52948;SDS011;38812;50.942;3.644;2022-11-14T08:50:41;15.60;;;11.05;;
52948;SDS011;38812;50.942;3.644;2022-11-14T08:53:07;15.55;;;11.38;;
52948;SDS011;38812;50.942;3.644;2022-11-14T08:55:32;18.15;;;11.32;;
52948;SDS011;38812;50.942;3.644;2022-11-14T08:57:57;18.23;;;12.55;;
52948;SDS011;38812;50.942;3.644;2022-11-14T09:00:23;17.45;;;11.27;;
52948;SDS011;38812;50.942;3.644;2022-11-14T09:02:48;19.95;;;10.90;;
52948;SDS011;38812;50.942;3.644;2022-11-14T09:05:14;28.73;;;12.00;;
52948;SDS011;38812;50.942;3.644;2022-11-14T09:07:39;19.65;;;10.93;;
52948;SDS011;38812;50.942;3.644;2022-11-14T09:10:05;20.55;;;11.98;;
52948;SDS011;38812;50.942;3.644;2022-11-14T09:12:31;17.92;;;11.60;;
52948;SDS011;38812;50.942;3.644;2022-11-14T09:14:57;16.70;;;12.45;;
52948;SDS011;38812;50.942;3.644;2022-11-14T09:17:22;19.10;;;11.75;;
52948;SDS011;38812;50.942;3.644;2022-11-14T09:19:48;17.52;;;12.75;;
52948;SDS011;38812;50.942;3.644;2022-11-14T09:22:13;17.98;;;12.57;;
52948;SDS011;38812;50.942;3.644;2022-11-14T09:24:38;17.77;;;12.65;;
52948;SDS011;38812;50.942;3.644;2022-11-14T09:27:04;18.45;;;13.15;;
52948;SDS011;38812;50.942;3.644;2022-11-14T09:29:29;18.17;;;13.45;;
52948;SDS011;38812;50.942;3.644;2022-11-14T09:31:54;21.23;;;14.73;;
52948;SDS011;38812;50.942;3.644;2022-11-14T09:34:21;22.13;;;15.23;;
52948;SDS011;38812;50.942;3.644;2022-11-14T09:36:46;22.45;;;15.00;;
52948;SDS011;38812;50.942;3.644;2022-11-14T09:39:11;19.85;;;14.00;;
52948;SDS011;38812;50.942;3.644;2022-11-14T09:50:32;26.27;;;16.40;;
52948;SDS011;38812;50.942;3.644;2022-11-14T09:53:02;28.23;;;16.70;;
52948;SDS011;38812;50.942;3.644;2022-11-14T09:58:00;28.15;;;15.82;;
52948;SDS011;38812;50.942;3.644;2022-11-14T10:00:28;25.52;;;15.82;;
52948;SDS011;38812;50.942;3.644;2022-11-14T10:05:41;25.00;;;16.92;;
52948;SDS011;38812;50.942;3.644;2022-11-14T10:11:31;25.45;;;17.40;;
52948;SDS011;38812;50.942;3.644;2022-11-14T10:28:53;24.73;;;16.35;;
52948;SDS011;38812;50.942;3.644;2022-11-14T10:31:23;24.55;;;16.85;;
52948;SDS011;38812;50.942;3.644;2022-11-14T10:39:23;25.20;;;16.67;;
52948;SDS011;38812;50.942;3.644;2022-11-14T10:42:02;26.40;;;16.48;;
52948;SDS011;38812;50.942;3.644;2022-11-14T10:44:40;27.25;;;17.17;;
52948;SDS011;38812;50.942;3.644;2022-11-14T10:47:15;21.95;;;15.55;;
52948;SDS011;38812;50.942;3.644;2022-11-14T10:49:44;26.90;;;16.42;;
52948;SDS011;38812;50.942;3.644;2022-11-14T10:52:15;27.48;;;16.55;;
52948;SDS011;38812;50.942;3.644;2022-11-14T10:54:45;25.73;;;16.67;;
52948;SDS011;38812;50.942;3.644;2022-11-14T10:57:19;26.67;;;16.02;;
52948;SDS011;38812;50.942;3.644;2022-11-14T10:59:45;27.17;;;16.73;;
52948;SDS011;38812;50.942;3.644;2022-11-14T11:02:11;21.38;;;15.73;;
52948;SDS011;38812;50.942;3.644;2022-11-14T11:04:38;22.42;;;16.77;;
52948;SDS011;38812;50.942;3.644;2022-11-14T11:09:34;25.17;;;17.13;;
52948;SDS011;38812;50.942;3.644;2022-11-14T11:12:20;23.17;;;14.95;;
52948;SDS011;38812;50.942;3.644;2022-11-14T11:14:48;22.95;;;14.80;;
52948;SDS011;38812;50.942;3.644;2022-11-14T11:17:31;21.45;;;15.52;;
52948;SDS011;38812;50.942;3.644;2022-11-14T11:19:56;25.33;;;17.02;;
52948;SDS011;38812;50.942;3.644;2022-11-14T11:22:48;26.98;;;15.75;;
52948;SDS011;38812;50.942;3.644;2022-11-14T11:25:24;26.58;;;17.52;;
52948;SDS011;38812;50.942;3.644;2022-11-14T11:28:24;28.48;;;16.95;;
52948;SDS011;38812;50.942;3.644;2022-11-14T11:35:47;29.70;;;16.55;;
52948;SDS011;38812;50.942;3.644;2022-11-14T11:38:15;27.33;;;16.83;;
52948;SDS011;38812;50.942;3.644;2022-11-14T11:40:45;24.88;;;16.65;;
52948;SDS011;38812;50.942;3.644;2022-11-14T11:43:21;29.95;;;17.27;;
52948;SDS011;38812;50.942;3.644;2022-11-14T11:46:02;23.50;;;16.27;;
52948;SDS011;38812;50.942;3.644;2022-11-14T11:51:02;23.23;;;16.35;;
52948;SDS011;38812;50.942;3.644;2022-11-14T11:53:36;24.00;;;15.90;;
52948;SDS011;38812;50.942;3.644;2022-11-14T11:56:10;28.13;;;17.13;;
52948;SDS011;38812;50.942;3.644;2022-11-14T11:58:47;24.73;;;16.35;;
52948;SDS011;38812;50.942;3.644;2022-11-14T12:01:15;24.55;;;17.10;;
52948;SDS011;38812;50.942;3.644;2022-11-14T12:03:58;24.50;;;16.42;;
52948;SDS011;38812;50.942;3.644;2022-11-14T12:06:24;22.45;;;16.27;;
52948;SDS011;38812;50.942;3.644;2022-11-14T12:22:54;22.80;;;16.10;;
52948;SDS011;38812;50.942;3.644;2022-11-14T12:28:49;24.42;;;14.98;;
52948;SDS011;38812;50.942;3.644;2022-11-14T12:31:23;22.13;;;16.30;;
52948;SDS011;38812;50.942;3.644;2022-11-14T12:34:52;23.27;;;14.98;;
52948;SDS011;38812;50.942;3.644;2022-11-14T12:37:18;24.52;;;17.10;;
52948;SDS011;38812;50.942;3.644;2022-11-14T12:39:58;19.23;;;14.27;;
52948;SDS011;38812;50.942;3.644;2022-11-14T12:42:26;26.25;;;17.27;;
52948;SDS011;38812;50.942;3.644;2022-11-14T12:44:51;28.88;;;16.13;;
52948;SDS011;38812;50.942;3.644;2022-11-14T12:47:21;24.98;;;16.20;;
52948;SDS011;38812;50.942;3.644;2022-11-14T12:57:48;25.83;;;16.17;;
52948;SDS011;38812;50.942;3.644;2022-11-14T13:00:29;22.88;;;15.40;;
52948;SDS011;38812;50.942;3.644;2022-11-14T13:05:53;24.10;;;15.90;;
52948;SDS011;38812;50.942;3.644;2022-11-14T13:11:48;26.60;;;16.70;;
52948;SDS011;38812;50.942;3.644;2022-11-14T13:14:18;24.58;;;16.00;;
52948;SDS011;38812;50.942;3.644;2022-11-14T13:19:59;26.77;;;15.88;;
52948;SDS011;38812;50.942;3.644;2022-11-14T13:22:45;24.42;;;16.70;;
52948;SDS011;38812;50.942;3.644;2022-11-14T13:25:14;24.92;;;17.27;;
52948;SDS011;38812;50.942;3.644;2022-11-14T13:27:42;23.00;;;15.50;;
52948;SDS011;38812;50.942;3.644;2022-11-14T13:30:08;23.92;;;16.35;;
52948;SDS011;38812;50.942;3.644;2022-11-14T13:35:10;24.42;;;16.88;;
52948;SDS011;38812;50.942;3.644;2022-11-14T13:40:32;24.45;;;17.35;;
52948;SDS011;38812;50.942;3.644;2022-11-14T13:45:38;26.13;;;17.02;;
52948;SDS011;38812;50.942;3.644;2022-11-14T13:51:10;30.67;;;16.08;;
52948;SDS011;38812;50.942;3.644;2022-11-14T13:53:39;24.67;;;17.58;;
52948;SDS011;38812;50.942;3.644;2022-11-14T13:56:14;25.13;;;16.90;;
52948;SDS011;38812;50.942;3.644;2022-11-14T13:59:03;29.58;;;16.90;;
52948;SDS011;38812;50.942;3.644;2022-11-14T14:07:46;33.70;;;22.83;;
52948;SDS011;38812;50.942;3.644;2022-11-14T14:10:25;23.80;;;16.27;;
52948;SDS011;38812;50.942;3.644;2022-11-14T14:13:08;26.77;;;17.30;;
52948;SDS011;38812;50.942;3.644;2022-11-14T14:15:56;24.38;;;15.88;;
52948;SDS011;38812;50.942;3.644;2022-11-14T14:24:29;23.60;;;15.98;;
52948;SDS011;38812;50.942;3.644;2022-11-14T14:29:47;21.73;;;14.88;;
52948;SDS011;38812;50.942;3.644;2022-11-14T14:32:28;22.80;;;14.38;;
52948;SDS011;38812;50.942;3.644;2022-11-14T14:34:53;20.83;;;12.95;;
52948;SDS011;38812;50.942;3.644;2022-11-14T14:37:26;19.65;;;14.50;;
52948;SDS011;38812;50.942;3.644;2022-11-14T14:42:25;19.55;;;14.63;;
52948;SDS011;38812;50.942;3.644;2022-11-14T14:44:58;21.77;;;16.02;;
52948;SDS011;38812;50.942;3.644;2022-11-14T14:47:35;22.58;;;14.05;;
52948;SDS011;38812;50.942;3.644;2022-11-14T14:50:05;21.20;;;15.10;;
52948;SDS011;38812;50.942;3.644;2022-11-14T14:52:39;22.58;;;14.75;;
52948;SDS011;38812;50.942;3.644;2022-11-14T14:55:05;25.45;;;15.45;;
52948;SDS011;38812;50.942;3.644;2022-11-14T14:57:41;23.10;;;15.15;;
52948;SDS011;38812;50.942;3.644;2022-11-14T15:00:14;21.10;;;14.75;;
52948;SDS011;38812;50.942;3.644;2022-11-14T15:02:50;23.35;;;15.18;;
52948;SDS011;38812;50.942;3.644;2022-11-14T15:05:25;23.10;;;14.80;;
52948;SDS011;38812;50.942;3.644;2022-11-14T15:07:54;22.10;;;15.23;;
52948;SDS011;38812;50.942;3.644;2022-11-14T15:10:24;22.48;;;15.93;;
52948;SDS011;38812;50.942;3.644;2022-11-14T15:12:53;19.30;;;14.73;;
52948;SDS011;38812;50.942;3.644;2022-11-14T15:15:20;23.05;;;15.45;;
52948;SDS011;38812;50.942;3.644;2022-11-14T15:17:49;23.55;;;16.42;;
52948;SDS011;38812;50.942;3.644;2022-11-14T15:20:27;23.90;;;16.85;;
52948;SDS011;38812;50.942;3.644;2022-11-14T15:23:03;21.92;;;15.50;;
52948;SDS011;38812;50.942;3.644;2022-11-14T15:25:29;25.00;;;15.48;;
52948;SDS011;38812;50.942;3.644;2022-11-14T15:27:55;20.17;;;12.50;;
52948;SDS011;38812;50.942;3.644;2022-11-14T15:30:25;22.75;;;14.63;;
52948;SDS011;38812;50.942;3.644;2022-11-14T15:32:55;24.77;;;15.77;;
52948;SDS011;38812;50.942;3.644;2022-11-14T15:35:27;25.08;;;15.43;;
52948;SDS011;38812;50.942;3.644;2022-11-14T15:38:06;21.08;;;14.95;;
52948;SDS011;38812;50.942;3.644;2022-11-14T15:40:42;22.60;;;14.82;;
52948;SDS011;38812;50.942;3.644;2022-11-14T15:43:34;25.83;;;15.05;;
52948;SDS011;38812;50.942;3.644;2022-11-14T15:46:26;23.55;;;15.35;;
52948;SDS011;38812;50.942;3.644;2022-11-14T15:48:52;37.13;;;21.23;;
52948;SDS011;38812;50.942;3.644;2022-11-14T15:51:35;28.17;;;18.00;;
52948;SDS011;38812;50.942;3.644;2022-11-14T15:54:02;31.77;;;20.83;;
52948;SDS011;38812;50.942;3.644;2022-11-14T15:56:27;30.70;;;18.33;;
52948;SDS011;38812;50.942;3.644;2022-11-14T15:58:54;31.63;;;19.00;;
52948;SDS011;38812;50.942;3.644;2022-11-14T16:01:21;29.60;;;18.80;;
52948;SDS011;38812;50.942;3.644;2022-11-14T16:03:47;35.55;;;21.45;;
52948;SDS011;38812;50.942;3.644;2022-11-14T16:06:15;29.90;;;17.83;;
52948;SDS011;38812;50.942;3.644;2022-11-14T16:08:40;30.23;;;17.98;;
52948;SDS011;38812;50.942;3.644;2022-11-14T16:11:06;30.50;;;18.40;;
52948;SDS011;38812;50.942;3.644;2022-11-14T16:13:31;26.42;;;17.15;;
52948;SDS011;38812;50.942;3.644;2022-11-14T16:15:56;32.20;;;18.88;;
52948;SDS011;38812;50.942;3.644;2022-11-14T16:18:22;29.42;;;18.17;;
52948;SDS011;38812;50.942;3.644;2022-11-14T16:20:47;25.98;;;16.95;;
52948;SDS011;38812;50.942;3.644;2022-11-14T16:23:13;27.38;;;16.95;;
52948;SDS011;38812;50.942;3.644;2022-11-14T16:25:39;26.48;;;16.85;;
52948;SDS011;38812;50.942;3.644;2022-11-14T16:28:04;30.38;;;17.90;;